Time;durP1;ratioP1;P1;durP2;ratioP2;P2;SDS_P1;SDS_P2;PMS_P1;PMS_P2;Temp;Humidity;BMP_temperature;BMP_pressure;BME280_temperature;BME280_humidity;BME280_pressure;Samples;Min_cycle;Max_cycle;Signal;HPM_P1;HPM_P2
2024/01/25 00:00:26;;;;;;;54.17;11.57;;;7.90;1.00;;;;;;5103682;28;20452;-63
2024/01/25 00:02:55;;;;;;;50.90;11.70;;;7.90;1.00;;;;;;5103585;28;20488;-63
2024/01/25 00:05:22;;;;;;;34.77;10.23;;;7.90;1.00;;;;;;5103679;28;20460;-63
2024/01/25 00:07:50;;;;;;;38.27;10.27;;;7.90;1.00;;;;;;5104093;28;20456;-63
2024/01/25 00:10:19;;;;;;;34.37;11.10;;;8.00;1.00;;;;;;5104005;28;20462;-64
2024/01/25 00:12:46;;;;;;;30.70;9.70;;;8.00;99.90;;;;;;5103658;28;20464;-65
2024/01/25 00:15:14;;;;;;;37.97;9.10;;;8.00;99.90;;;;;;5103892;28;20484;-63
2024/01/25 00:17:42;;;;;;;33.03;10.13;;;7.90;99.90;;;;;;5102930;28;20456;-63
2024/01/25 00:20:12;;;;;;;35.03;9.70;;;8.00;99.90;;;;;;5102896;28;20513;-63
2024/01/25 00:22:40;;;;;;;41.03;11.40;;;8.00;99.90;;;;;;5103070;28;20460;-63
2024/01/25 00:25:07;;;;;;;34.00;10.43;;;7.90;99.90;;;;;;5103133;28;20469;-64
2024/01/25 00:27:35;;;;;;;34.57;10.13;;;7.90;1.00;;;;;;5103031;28;20460;-64
2024/01/25 00:30:04;;;;;;;32.27;9.27;;;8.00;1.00;;;;;;5102519;28;20493;-63
2024/01/25 00:32:32;;;;;;;41.47;10.90;;;8.00;99.90;;;;;;5103555;28;20470;-63
2024/01/25 00:34:59;;;;;;;36.33;9.77;;;8.00;99.90;;;;;;5102922;28;20452;-63
2024/01/25 00:37:30;;;;;;;40.20;9.63;;;7.90;99.90;;;;;;5102971;28;20484;-65
2024/01/25 00:39:58;;;;;;;31.07;9.27;;;7.90;1.00;;;;;;5103080;28;20495;-64
2024/01/25 00:42:26;;;;;;;29.30;8.63;;;7.90;1.00;;;;;;5102322;28;20618;-63
2024/01/25 00:44:54;;;;;;;30.47;8.93;;;7.90;1.00;;;;;;5102868;28;20497;-67
2024/01/25 00:47:22;;;;;;;38.30;10.23;;;7.90;99.90;;;;;;5102611;28;20457;-63
2024/01/25 00:49:50;;;;;;;37.83;9.27;;;7.90;99.90;;;;;;5102540;28;20496;-63
2024/01/25 00:52:17;;;;;;;33.83;8.83;;;7.90;1.00;;;;;;5102652;28;20554;-64
2024/01/25 00:54:47;;;;;;;35.83;10.13;;;7.90;99.90;;;;;;5102398;28;20892;-64
2024/01/25 00:57:14;;;;;;;37.50;10.70;;;7.90;99.90;;;;;;5102693;28;20514;-64
2024/01/25 00:59:42;;;;;;;31.17;10.30;;;7.90;99.90;;;;;;5102789;28;20539;-63
2024/01/25 01:02:13;;;;;;;33.47;9.90;;;7.90;1.00;;;;;;5102982;28;20539;-63
2024/01/25 01:04:41;;;;;;;33.50;10.00;;;7.90;99.90;;;;;;5102793;28;20492;-63
2024/01/25 01:07:11;;;;;;;43.80;11.03;;;7.90;99.90;;;;;;5102279;28;20482;-64
2024/01/25 01:09:38;;;;;;;39.83;10.20;;;7.90;99.90;;;;;;5102726;28;20938;-63
2024/01/25 01:12:08;;;;;;;40.57;10.40;;;7.90;99.90;;;;;;5102579;28;20479;-63
2024/01/25 01:14:35;;;;;;;39.30;9.93;;;7.80;1.00;;;;;;5102334;28;20486;-63
2024/01/25 01:17:03;;;;;;;31.20;9.33;;;7.70;99.90;;;;;;5102337;28;20453;-63
2024/01/25 01:19:30;;;;;;;37.43;8.93;;;7.70;99.90;;;;;;5101738;28;20438;-63
2024/01/25 01:21:57;;;;;;;32.23;10.00;;;7.70;99.90;;;;;;5101788;28;20482;-63
2024/01/25 01:24:24;;;;;;;33.80;10.67;;;7.70;99.90;;;;;;5102051;28;20832;-63
2024/01/25 01:26:52;;;;;;;36.30;9.20;;;7.60;99.90;;;;;;5102235;28;20938;-63
2024/01/25 01:29:20;;;;;;;41.27;10.47;;;7.60;1.00;;;;;;5101957;28;20875;-63
2024/01/25 01:31:48;;;;;;;36.87;9.40;;;7.40;1.00;;;;;;5101514;28;20456;-63
2024/01/25 01:34:17;;;;;;;29.77;8.43;;;7.40;4.30;;;;;;5101905;28;20539;-64
2024/01/25 01:36:44;;;;;;;31.47;10.57;;;7.30;99.90;;;;;;5101998;28;20461;-63
2024/01/25 01:39:12;;;;;;;36.33;10.33;;;7.30;1.00;;;;;;5101350;28;20901;-63
2024/01/25 01:41:39;;;;;;;37.30;10.47;;;7.30;99.90;;;;;;5101761;28;20456;-63
2024/01/25 01:44:06;;;;;;;31.43;10.60;;;7.20;99.90;;;;;;5102146;28;20537;-63
2024/01/25 01:46:37;;;;;;;30.27;9.10;;;7.30;1.00;;;;;;5102838;28;20876;-63
2024/01/25 01:49:05;;;;;;;31.87;8.60;;;7.30;99.90;;;;;;5103191;28;20487;-63
2024/01/25 01:51:33;;;;;;;43.27;10.27;;;7.30;1.00;;;;;;5101958;28;20435;-63
2024/01/25 01:54:02;;;;;;;40.33;11.43;;;7.30;1.00;;;;;;5101164;28;20457;-64
2024/01/25 01:56:30;;;;;;;30.53;9.20;;;7.30;1.00;;;;;;5102191;28;20470;-63
2024/01/25 01:58:59;;;;;;;27.47;9.50;;;7.40;1.00;;;;;;5101958;28;20890;-63
2024/01/25 02:01:26;;;;;;;28.20;8.77;;;7.40;1.00;;;;;;5102636;28;20552;-63
2024/01/25 02:03:55;;;;;;;39.13;9.87;;;7.40;99.90;;;;;;5101440;28;21025;-63
2024/01/25 02:06:24;;;;;;;39.90;9.77;;;7.40;1.00;;;;;;5101455;28;20456;-64
2024/01/25 02:08:52;;;;;;;29.40;10.67;;;7.30;1.00;;;;;;5101985;28;20742;-63
2024/01/25 02:11:20;;;;;;;32.30;9.07;;;7.40;1.00;;;;;;5101452;28;20522;-63
2024/01/25 02:13:48;;;;;;;30.40;8.23;;;7.40;99.90;;;;;;5101929;28;20452;-63
2024/01/25 02:16:15;;;;;;;27.40;9.83;;;7.40;99.90;;;;;;5101793;28;20550;-63
2024/01/25 02:18:43;;;;;;;34.10;9.03;;;7.40;1.00;;;;;;5100852;28;20463;-63
2024/01/25 02:21:12;;;;;;;30.60;9.27;;;7.40;99.90;;;;;;5101601;28;20467;-64
2024/01/25 02:23:40;;;;;;;28.70;9.27;;;7.40;99.90;;;;;;5102313;28;20578;-63
2024/01/25 02:26:07;;;;;;;32.33;8.97;;;7.40;1.00;;;;;;5101858;28;20900;-63
2024/01/25 02:28:35;;;;;;;29.57;9.47;;;7.40;99.90;;;;;;5102178;28;20467;-64
2024/01/25 02:31:03;;;;;;;37.73;8.60;;;7.40;99.90;;;;;;5101572;28;20752;-63
2024/01/25 02:33:31;;;;;;;31.70;9.37;;;7.40;99.90;;;;;;5102018;28;20480;-63
2024/01/25 02:35:58;;;;;;;34.53;8.93;;;7.40;99.90;;;;;;5101620;28;20456;-64
2024/01/25 02:38:26;;;;;;;42.60;10.03;;;7.40;99.90;;;;;;5101582;28;20553;-64
2024/01/25 02:40:54;;;;;;;45.33;10.80;;;7.40;99.90;;;;;;5101219;28;20463;-63
2024/01/25 02:43:22;;;;;;;35.53;10.10;;;7.50;99.90;;;;;;5102035;28;20809;-64
2024/01/25 02:45:49;;;;;;;29.63;8.60;;;7.30;99.90;;;;;;5101981;28;20510;-64
2024/01/25 02:48:16;;;;;;;45.63;11.13;;;7.40;99.90;;;;;;5101354;28;20460;-63
2024/01/25 02:50:44;;;;;;;35.33;8.87;;;7.40;99.90;;;;;;5101427;28;20483;-64
2024/01/25 02:53:11;;;;;;;25.80;8.70;;;7.40;99.90;;;;;;5100956;28;20506;-63
2024/01/25 02:55:38;;;;;;;39.73;10.80;;;7.40;9.40;;;;;;5101639;28;20492;-63
2024/01/25 02:58:07;;;;;;;38.87;9.77;;;7.40;51.60;;;;;;5102013;28;20544;-64
2024/01/25 03:00:34;;;;;;;30.80;9.17;;;7.30;99.90;;;;;;5099994;28;20889;-63
2024/01/25 03:03:01;;;;;;;42.07;9.07;;;7.30;99.90;;;;;;5100888;28;20555;-63
2024/01/25 03:05:28;;;;;;;28.93;11.47;;;7.30;99.90;;;;;;5100233;28;20983;-63
2024/01/25 03:07:56;;;;;;;37.23;8.53;;;7.30;99.90;;;;;;5100791;28;20461;-63
2024/01/25 03:10:23;;;;;;;27.83;9.27;;;7.30;99.90;;;;;;5100035;28;20932;-63
2024/01/25 03:12:50;;;;;;;29.50;10.57;;;7.30;91.60;;;;;;5100974;28;20468;-63
2024/01/25 03:15:19;;;;;;;37.40;10.00;;;7.30;99.90;;;;;;5100958;28;20466;-63
2024/01/25 03:17:46;;;;;;;32.90;9.40;;;7.20;99.90;;;;;;5100576;28;20532;-63
2024/01/25 03:20:13;;;;;;;33.80;9.40;;;7.20;99.90;;;;;;5100653;28;20464;-63
2024/01/25 03:22:41;;;;;;;27.20;8.23;;;7.20;99.90;;;;;;5101291;28;20456;-64
2024/01/25 03:25:09;;;;;;;33.20;8.60;;;7.10;99.90;;;;;;5101154;28;20484;-64
2024/01/25 03:27:36;;;;;;;24.93;9.00;;;7.10;1.00;;;;;;5100960;28;20460;-63
2024/01/25 03:30:05;;;;;;;34.70;9.10;;;7.10;1.00;;;;;;5100458;28;20559;-64
2024/01/25 03:32:35;;;;;;;38.77;9.70;;;7.10;1.00;;;;;;5100689;28;20913;-63
2024/01/25 03:35:02;;;;;;;33.60;9.50;;;7.00;99.90;;;;;;5100628;28;20480;-63
2024/01/25 03:37:30;;;;;;;35.63;9.07;;;7.00;99.90;;;;;;5100866;28;20437;-63
2024/01/25 03:39:57;;;;;;;43.87;9.73;;;6.90;99.90;;;;;;5099542;28;20456;-63
2024/01/25 03:42:24;;;;;;;30.20;8.67;;;6.90;1.00;;;;;;5100201;28;20969;-63
2024/01/25 03:44:52;;;;;;;31.70;8.60;;;6.80;1.00;;;;;;5100292;28;20537;-63
2024/01/25 03:47:20;;;;;;;34.17;9.07;;;6.70;1.00;;;;;;5100097;28;20524;-63
2024/01/25 03:49:48;;;;;;;33.77;10.33;;;6.80;99.90;;;;;;5100028;28;20460;-63
2024/01/25 03:52:15;;;;;;;35.90;10.07;;;6.80;99.90;;;;;;5100282;28;20576;-63
2024/01/25 03:54:43;;;;;;;44.03;10.87;;;6.70;99.90;;;;;;5100260;28;20456;-64
2024/01/25 03:57:10;;;;;;;32.97;10.40;;;6.70;1.00;;;;;;5099999;28;20499;-63
2024/01/25 03:59:37;;;;;;;29.03;10.30;;;6.70;37.10;;;;;;5100097;28;20456;-63
2024/01/25 04:02:04;;;;;;;25.90;9.47;;;6.70;45.70;;;;;;5100232;28;20488;-63
2024/01/25 04:04:32;;;;;;;22.33;8.17;;;6.60;99.90;;;;;;5100182;28;20484;-63
2024/01/25 04:07:00;;;;;;;37.10;11.57;;;6.50;99.90;;;;;;5100552;28;20476;-63
2024/01/25 04:09:28;;;;;;;34.83;9.87;;;6.50;1.00;;;;;;5099922;28;20491;-63
2024/01/25 04:11:56;;;;;;;35.63;9.70;;;6.50;1.00;;;;;;5099487;28;20488;-63
2024/01/25 04:14:23;;;;;;;33.93;9.17;;;6.40;93.40;;;;;;5099849;28;20461;-63
2024/01/25 04:16:50;;;;;;;37.43;9.83;;;6.40;99.90;;;;;;5113207;28;20463;-63
2024/01/25 04:19:18;;;;;;;24.60;9.27;;;6.40;99.90;;;;;;5120334;28;20455;-63
2024/01/25 04:24:52;;;;;;;29.63;10.70;;;6.30;99.90;;;;;;5120726;28;20474;-63
2024/01/25 04:27:19;;;;;;;30.17;10.40;;;6.30;1.00;;;;;;5120479;28;20499;-63
2024/01/25 04:29:47;;;;;;;37.83;10.03;;;6.30;1.00;;;;;;5119949;28;20931;-63
2024/01/25 04:32:15;;;;;;;29.90;10.20;;;6.20;1.00;;;;;;5123315;28;20508;-63
2024/01/25 04:34:46;;;;;;;37.90;11.23;;;6.20;1.00;;;;;;5123470;28;20504;-63
2024/01/25 04:37:13;;;;;;;39.37;9.53;;;6.20;1.00;;;;;;5124105;28;20462;-63
2024/01/25 04:39:40;;;;;;;30.87;8.57;;;6.10;99.90;;;;;;5123366;27;20869;-63
2024/01/25 04:42:09;;;;;;;30.60;10.33;;;6.10;1.00;;;;;;5123426;28;20785;-63
2024/01/25 04:44:36;;;;;;;38.43;9.63;;;6.10;99.90;;;;;;5123824;28;20511;-63
2024/01/25 04:47:04;;;;;;;28.43;10.00;;;6.00;1.00;;;;;;5123249;28;20747;-63
2024/01/25 04:49:31;;;;;;;33.80;9.70;;;6.00;20.50;;;;;;5123448;27;20463;-63
2024/01/25 04:51:58;;;;;;;38.80;10.27;;;6.00;1.00;;;;;;5123826;28;20516;-63
2024/01/25 04:54:26;;;;;;;28.80;8.67;;;6.00;1.00;;;;;;5123287;28;20451;-63
2024/01/25 04:56:53;;;;;;;36.43;9.80;;;5.90;65.10;;;;;;5123474;28;20502;-63
2024/01/25 04:59:22;;;;;;;29.37;8.50;;;5.80;1.00;;;;;;5123085;28;20459;-63
2024/01/25 05:01:49;;;;;;;31.90;10.77;;;5.80;1.00;;;;;;5123635;28;20459;-63
2024/01/25 05:04:18;;;;;;;35.50;11.07;;;5.80;99.90;;;;;;5123503;28;20469;-63
2024/01/25 05:06:45;;;;;;;36.20;11.50;;;5.80;1.00;;;;;;5124400;28;20465;-64
2024/01/25 05:09:13;;;;;;;36.53;9.87;;;5.80;1.00;;;;;;5125623;28;20470;-64
2024/01/25 05:11:40;;;;;;;35.63;10.30;;;6.00;1.00;;;;;;5120256;28;20967;-65
2024/01/25 05:14:08;;;;;;;35.07;11.07;;;5.90;1.00;;;;;;5120927;28;20801;-65
2024/01/25 05:16:37;;;;;;;37.63;8.57;;;5.80;1.00;;;;;;5120272;28;20448;-65
2024/01/25 05:19:04;;;;;;;38.70;9.30;;;5.80;1.00;;;;;;5119885;28;20459;-65
2024/01/25 05:21:31;;;;;;;32.90;10.83;;;5.70;1.00;;;;;;5120026;28;20459;-65
2024/01/25 05:23:59;;;;;;;39.93;10.37;;;5.70;1.00;;;;;;5120414;28;20434;-65
2024/01/25 05:26:27;;;;;;;32.97;10.73;;;5.60;1.00;;;;;;5120641;28;20492;-65
2024/01/25 05:28:54;;;;;;;31.53;10.50;;;5.50;2.10;;;;;;5120413;28;20546;-65
2024/01/25 05:31:21;;;;;;;40.27;10.73;;;5.50;13.20;;;;;;5120315;28;20457;-65
2024/01/25 05:33:50;;;;;;;31.47;10.00;;;5.50;57.60;;;;;;5120570;28;20456;-65
2024/01/25 05:36:17;;;;;;;41.67;10.10;;;5.40;80.60;;;;;;5120512;28;20524;-66
2024/01/25 05:38:44;;;;;;;35.30;9.90;;;5.40;99.90;;;;;;5120896;28;20509;-65
2024/01/25 05:41:12;;;;;;;38.00;10.73;;;5.40;99.90;;;;;;5119957;28;20945;-65
2024/01/25 05:43:39;;;;;;;42.90;11.50;;;5.40;99.90;;;;;;5120401;28;20467;-65
2024/01/25 05:46:06;;;;;;;36.27;10.90;;;5.40;99.90;;;;;;5120835;27;20827;-65
2024/01/25 05:48:33;;;;;;;38.10;11.00;;;5.40;99.90;;;;;;5120361;28;20486;-66
2024/01/25 05:51:02;;;;;;;45.50;11.67;;;5.40;99.90;;;;;;5121003;28;20954;-65
2024/01/25 05:53:30;;;;;;;41.33;11.37;;;5.40;99.90;;;;;;5120084;28;20551;-65
2024/01/25 05:55:57;;;;;;;41.73;10.67;;;5.30;99.90;;;;;;5120383;28;20452;-65
2024/01/25 05:58:24;;;;;;;36.83;10.97;;;5.30;99.90;;;;;;5119847;28;20459;-65
2024/01/25 06:00:52;;;;;;;48.43;12.50;;;5.20;99.90;;;;;;5120239;28;20504;-65
2024/01/25 06:03:19;;;;;;;33.53;11.13;;;5.20;99.90;;;;;;5120473;28;20456;-65
2024/01/25 06:05:46;;;;;;;44.07;11.97;;;5.10;99.90;;;;;;5120107;28;20499;-65
2024/01/25 06:08:15;;;;;;;43.47;12.50;;;5.20;99.90;;;;;;5120638;28;20456;-65
2024/01/25 06:10:43;;;;;;;40.93;10.80;;;5.20;99.90;;;;;;5119618;28;20844;-65
2024/01/25 06:13:10;;;;;;;41.27;11.90;;;5.20;99.90;;;;;;5120445;28;20505;-66
2024/01/25 06:15:38;;;;;;;47.43;13.53;;;5.20;99.90;;;;;;5120037;28;20819;-65
2024/01/25 06:18:06;;;;;;;47.67;14.30;;;5.30;99.90;;;;;;5119958;28;20460;-65
2024/01/25 06:20:33;;;;;;;41.63;12.47;;;5.30;99.90;;;;;;5119740;28;20451;-65
2024/01/25 06:23:01;;;;;;;49.13;14.40;;;5.40;99.90;;;;;;5120095;28;20549;-66
2024/01/25 06:25:30;;;;;;;45.80;14.50;;;5.40;99.90;;;;;;5118727;28;20487;-65
2024/01/25 06:27:59;;;;;;;61.67;14.37;;;5.40;99.90;;;;;;5118773;28;20459;-65
2024/01/25 06:30:26;;;;;;;53.63;16.70;;;5.50;99.90;;;;;;5119332;28;20847;-66
2024/01/25 06:32:53;;;;;;;47.20;17.80;;;5.50;99.90;;;;;;5119208;28;20968;-65
2024/01/25 06:35:20;;;;;;;50.90;17.77;;;5.50;99.90;;;;;;5119586;28;20486;-66
2024/01/25 06:37:48;;;;;;;55.23;17.67;;;5.50;99.90;;;;;;5119161;28;20815;-66
2024/01/25 06:40:16;;;;;;;43.37;16.27;;;5.50;99.90;;;;;;5118399;28;20451;-65
2024/01/25 06:42:45;;;;;;;57.37;20.57;;;5.50;99.90;;;;;;5118773;28;20546;-66
2024/01/25 06:45:12;;;;;;;44.60;16.03;;;5.60;99.90;;;;;;5117241;28;20466;-65
2024/01/25 06:47:39;;;;;;;59.73;18.50;;;5.60;99.90;;;;;;5118539;28;20508;-66
2024/01/25 06:50:08;;;;;;;58.23;21.27;;;5.60;99.90;;;;;;5119625;28;20778;-66
2024/01/25 06:52:36;;;;;;;53.93;19.73;;;5.60;99.90;;;;;;5119468;28;20491;-66
2024/01/25 06:55:05;;;;;;;62.53;20.77;;;5.70;99.90;;;;;;5117694;28;20459;-66
2024/01/25 06:57:32;;;;;;;55.80;23.33;;;5.60;99.90;;;;;;5117143;28;20567;-66
2024/01/25 07:00:02;;;;;;;61.63;20.80;;;5.60;99.90;;;;;;5116658;27;20463;-66
2024/01/25 07:02:30;;;;;;;54.50;20.40;;;5.60;99.90;;;;;;5117637;28;20941;-66
2024/01/25 07:04:57;;;;;;;49.67;18.97;;;5.70;99.90;;;;;;5116891;28;20455;-66
2024/01/25 07:07:25;;;;;;;55.90;18.90;;;5.60;99.90;;;;;;5116275;28;20451;-66
2024/01/25 07:09:52;;;;;;;63.13;18.50;;;5.70;99.90;;;;;;5117597;28;20499;-67
2024/01/25 07:12:20;;;;;;;59.53;20.37;;;5.70;99.90;;;;;;5118768;28;20462;-67
2024/01/25 07:14:47;;;;;;;48.13;19.83;;;5.60;99.90;;;;;;5119326;28;20877;-66
2024/01/25 07:17:17;;;;;;;52.73;20.80;;;5.60;99.90;;;;;;5118895;28;20459;-67
2024/01/25 07:19:44;;;;;;;51.23;21.47;;;5.60;99.90;;;;;;5118737;28;20463;-67
2024/01/25 07:22:14;;;;;;;51.87;21.27;;;5.60;99.90;;;;;;5118870;28;20512;-67
2024/01/25 07:24:42;;;;;;;55.30;23.33;;;5.60;99.90;;;;;;5118495;28;20463;-66
2024/01/25 07:27:10;;;;;;;51.87;18.93;;;5.60;99.90;;;;;;5118154;28;20491;-66
2024/01/25 07:29:37;;;;;;;73.07;20.33;;;5.60;99.90;;;;;;5118116;28;20829;-66
2024/01/25 07:32:05;;;;;;;58.30;20.83;;;5.60;99.90;;;;;;5118349;28;20460;-66
2024/01/25 07:34:34;;;;;;;55.40;18.20;;;5.70;99.90;;;;;;5118839;28;20919;-66
2024/01/25 07:37:01;;;;;;;45.80;18.87;;;5.60;99.90;;;;;;5118406;28;20455;-66
2024/01/25 07:39:28;;;;;;;60.90;20.07;;;5.70;99.90;;;;;;5118785;28;20506;-67
2024/01/25 07:41:56;;;;;;;54.00;19.00;;;5.60;99.90;;;;;;5117483;28;20463;-66
2024/01/25 07:44:23;;;;;;;47.77;19.07;;;5.70;99.90;;;;;;5118680;28;20455;-66
2024/01/25 07:46:51;;;;;;;58.93;21.27;;;5.60;99.90;;;;;;5118526;28;20491;-66
2024/01/25 07:49:18;;;;;;;50.30;18.83;;;5.60;99.90;;;;;;5118583;28;20456;-66
2024/01/25 07:51:47;;;;;;;44.30;17.90;;;5.70;99.90;;;;;;5118580;28;20477;-66
2024/01/25 07:54:15;;;;;;;52.27;18.50;;;5.80;99.90;;;;;;5118092;28;20464;-66
2024/01/25 07:56:43;;;;;;;48.40;17.50;;;5.80;99.90;;;;;;5118211;28;20456;-65
2024/01/25 07:59:10;;;;;;;55.43;19.17;;;5.80;99.90;;;;;;5118434;28;20847;-66
2024/01/25 08:01:38;;;;;;;47.30;17.83;;;5.80;99.90;;;;;;5117551;28;20504;-66
2024/01/25 08:04:05;;;;;;;55.67;19.80;;;5.80;99.90;;;;;;5118184;28;20466;-66
2024/01/25 08:06:33;;;;;;;49.63;18.43;;;5.80;99.90;;;;;;5122128;27;20487;-65
2024/01/25 08:09:02;;;;;;;47.47;17.40;;;5.80;99.90;;;;;;5122136;28;20466;-66
2024/01/25 08:11:30;;;;;;;57.17;18.27;;;5.80;99.90;;;;;;5122456;28;20487;-65
2024/01/25 08:13:57;;;;;;;46.53;17.80;;;5.90;99.90;;;;;;5122738;28;20485;-65
2024/01/25 08:16:25;;;;;;;50.77;17.57;;;5.90;99.90;;;;;;5122699;28;20885;-64
2024/01/25 08:18:53;;;;;;;51.83;18.30;;;5.80;99.90;;;;;;5122896;28;20542;-66
2024/01/25 08:21:21;;;;;;;49.50;16.27;;;5.80;99.90;;;;;;5122170;28;20509;-65
2024/01/25 08:23:48;;;;;;;52.17;19.00;;;5.80;99.90;;;;;;5121985;28;20498;-66
2024/01/25 08:26:18;;;;;;;52.47;19.77;;;5.80;99.90;;;;;;5122489;28;20581;-65
2024/01/25 08:28:47;;;;;;;53.60;19.40;;;5.90;99.90;;;;;;5122871;28;20868;-65
2024/01/25 08:31:15;;;;;;;49.93;18.20;;;5.90;99.90;;;;;;5122283;28;20467;-65
2024/01/25 08:33:44;;;;;;;39.93;18.60;;;5.90;99.90;;;;;;5121200;27;20528;-65
2024/01/25 08:36:11;;;;;;;45.20;19.10;;;5.90;99.90;;;;;;5121552;28;20448;-65
2024/01/25 08:38:39;;;;;;;51.60;21.37;;;5.90;99.90;;;;;;5121685;28;20463;-65
2024/01/25 08:41:06;;;;;;;52.60;20.53;;;5.90;99.90;;;;;;5121380;28;20461;-65
2024/01/25 08:43:36;;;;;;;42.43;18.30;;;5.90;99.90;;;;;;5121820;28;20513;-65
2024/01/25 08:46:04;;;;;;;48.47;20.53;;;5.90;99.90;;;;;;5121066;28;20511;-65
2024/01/25 08:48:31;;;;;;;67.67;21.83;;;6.00;99.90;;;;;;5121994;28;20468;-65
2024/01/25 08:50:59;;;;;;;44.83;19.10;;;6.00;99.90;;;;;;5122271;28;20797;-65
2024/01/25 08:53:27;;;;;;;56.33;21.23;;;6.00;99.90;;;;;;5121535;28;20459;-65
2024/01/25 08:55:54;;;;;;;55.53;21.83;;;6.00;99.90;;;;;;5120911;28;20923;-65
2024/01/25 08:58:22;;;;;;;61.70;23.20;;;6.10;99.90;;;;;;5121924;28;20455;-65
2024/01/25 09:00:51;;;;;;;51.93;21.60;;;6.00;99.90;;;;;;5121840;28;20746;-65
2024/01/25 09:03:19;;;;;;;47.73;21.37;;;5.90;99.90;;;;;;5121472;28;20447;-65
2024/01/25 09:05:47;;;;;;;49.63;20.57;;;6.00;99.90;;;;;;5120044;28;20483;-65
2024/01/25 09:08:15;;;;;;;42.40;21.27;;;6.10;99.90;;;;;;5120743;28;20452;-65
2024/01/25 09:10:44;;;;;;;52.20;20.53;;;6.00;99.90;;;;;;5120265;28;20892;-66
2024/01/25 09:13:11;;;;;;;52.63;19.87;;;6.10;99.90;;;;;;5121329;28;20505;-65
2024/01/25 09:15:39;;;;;;;64.83;19.70;;;6.10;99.90;;;;;;5120919;28;20508;-65
2024/01/25 09:18:08;;;;;;;54.80;19.40;;;6.00;99.90;;;;;;5119709;28;20454;-65
2024/01/25 09:20:35;;;;;;;49.80;19.87;;;6.00;99.90;;;;;;5120365;28;20794;-65
2024/01/25 09:23:03;;;;;;;47.13;20.57;;;6.00;99.90;;;;;;5121821;27;20459;-65
2024/01/25 09:25:31;;;;;;;54.10;20.43;;;6.10;99.90;;;;;;5121539;28;20510;-65
2024/01/25 09:27:58;;;;;;;49.63;19.80;;;6.10;99.90;;;;;;5114079;28;20479;-64
2024/01/25 09:30:26;;;;;;;46.33;19.63;;;6.20;99.90;;;;;;5100190;28;20463;-65
2024/01/25 09:32:54;;;;;;;58.77;19.43;;;6.20;99.90;;;;;;5105077;28;20451;-65
2024/01/25 09:35:23;;;;;;;49.67;19.70;;;6.30;99.90;;;;;;5120634;28;20459;-65
2024/01/25 09:37:52;;;;;;;47.00;19.40;;;6.30;99.90;;;;;;5120338;28;20455;-66
2024/01/25 09:40:20;;;;;;;44.67;17.87;;;6.30;99.90;;;;;;5118895;28;20459;-65
2024/01/25 09:42:49;;;;;;;44.30;19.20;;;6.30;99.90;;;;;;5119353;28;20467;-65
2024/01/25 09:45:18;;;;;;;61.10;21.27;;;6.40;99.90;;;;;;5119621;28;20558;-64
2024/01/25 09:47:46;;;;;;;46.73;17.87;;;6.40;99.90;;;;;;5119637;27;20495;-65
2024/01/25 09:50:14;;;;;;;37.50;18.00;;;6.40;99.90;;;;;;5119486;28;20730;-65
2024/01/25 09:52:45;;;;;;;52.17;19.90;;;6.50;99.90;;;;;;5120119;28;20457;-65
2024/01/25 09:55:15;;;;;;;47.50;20.43;;;6.50;99.90;;;;;;5121094;28;20889;-65
2024/01/25 09:57:47;;;;;;;44.20;18.50;;;6.50;99.90;;;;;;5120487;28;20448;-65
2024/01/25 10:00:15;;;;;;;46.40;19.10;;;6.60;99.90;;;;;;5121544;28;20455;-64
2024/01/25 10:02:43;;;;;;;52.40;18.90;;;6.60;99.90;;;;;;5121652;27;20451;-65
2024/01/25 10:05:11;;;;;;;56.60;19.20;;;6.70;99.90;;;;;;5119847;28;20897;-64
2024/01/25 10:07:39;;;;;;;45.17;18.77;;;6.70;99.90;;;;;;5120456;28;20501;-65
2024/01/25 10:10:10;;;;;;;51.80;18.90;;;6.70;99.90;;;;;;5120277;28;20554;-65
2024/01/25 10:12:39;;;;;;;43.77;17.37;;;6.80;99.90;;;;;;5121085;28;20554;-65
2024/01/25 10:15:07;;;;;;;38.83;18.57;;;6.90;99.90;;;;;;5120948;28;20508;-65
2024/01/25 10:17:35;;;;;;;38.90;18.17;;;6.90;99.90;;;;;;5120824;28;20448;-65
2024/01/25 10:20:02;;;;;;;48.43;19.70;;;6.90;99.90;;;;;;5119787;28;20750;-65
2024/01/25 10:22:30;;;;;;;44.73;17.57;;;7.00;99.90;;;;;;5119947;28;20876;-63
2024/01/25 10:24:57;;;;;;;42.63;18.67;;;7.10;99.90;;;;;;5119772;28;20788;-63
2024/01/25 10:27:26;;;;;;;51.93;18.17;;;7.30;99.90;;;;;;5119505;28;20496;-64
2024/01/25 10:29:54;;;;;;;37.70;17.10;;;7.20;99.90;;;;;;5119183;28;20506;-65
2024/01/25 10:32:21;;;;;;;47.33;19.20;;;7.40;99.90;;;;;;5119343;28;20741;-65
2024/01/25 10:34:50;;;;;;;45.67;18.13;;;7.50;99.90;;;;;;5120634;28;20460;-65
2024/01/25 10:37:18;;;;;;;40.77;16.87;;;7.30;99.90;;;;;;5120325;28;20451;-65
2024/01/25 10:39:46;;;;;;;40.97;17.37;;;7.30;99.90;;;;;;5119400;28;20459;-66
2024/01/25 10:42:14;;;;;;;41.83;17.60;;;7.20;99.90;;;;;;5119760;28;20499;-65
2024/01/25 10:44:45;;;;;;;49.63;17.43;;;7.30;99.90;;;;;;5119965;28;20460;-65
2024/01/25 10:47:13;;;;;;;49.40;16.77;;;7.30;99.90;;;;;;5120033;28;20842;-65
2024/01/25 10:49:42;;;;;;;50.93;17.37;;;7.40;99.90;;;;;;5119561;28;20455;-65
2024/01/25 10:52:10;;;;;;;40.23;17.70;;;7.50;99.90;;;;;;5119724;28;20456;-65
2024/01/25 10:54:38;;;;;;;48.50;17.60;;;7.50;99.90;;;;;;5119703;28;20903;-65
2024/01/25 10:57:06;;;;;;;43.87;15.60;;;7.50;99.90;;;;;;5119881;28;20463;-65
2024/01/25 10:59:34;;;;;;;45.33;17.77;;;7.40;99.90;;;;;;5116904;28;20471;-64
2024/01/25 11:02:04;;;;;;;36.73;16.10;;;7.40;99.90;;;;;;5118994;28;20887;-65
2024/01/25 11:04:32;;;;;;;35.10;14.90;;;7.20;99.90;;;;;;5118953;28;20434;-65
2024/01/25 11:07:08;;;;;;;37.67;17.03;;;7.40;99.90;;;;;;5119025;28;20494;-65
2024/01/25 11:09:37;;;;;;;32.13;16.00;;;7.50;99.90;;;;;;5119342;28;20520;-65
2024/01/25 11:12:14;;;;;;;38.80;14.70;;;7.60;99.90;;;;;;5119408;28;20760;-66
2024/01/25 11:14:41;;;;;;;43.87;16.40;;;7.80;99.90;;;;;;5119193;28;20466;-65
2024/01/25 11:17:22;;;;;;;41.87;15.40;;;7.90;99.90;;;;;;5119151;28;20525;-65
2024/01/25 11:19:51;;;;;;;35.93;15.93;;;8.00;99.90;;;;;;5118955;28;20459;-65
2024/01/25 11:22:19;;;;;;;35.83;17.03;;;8.10;99.90;;;;;;5118865;28;20456;-65
2024/01/25 11:24:48;;;;;;;29.07;16.67;;;8.20;99.90;;;;;;5118908;28;20467;-65
2024/01/25 11:27:16;;;;;;;47.43;17.20;;;8.40;1.00;;;;;;5119204;28;20487;-66
2024/01/25 11:29:44;;;;;;;41.57;17.10;;;8.40;99.90;;;;;;5117237;28;20455;-65
2024/01/25 11:32:13;;;;;;;33.70;15.07;;;8.30;99.90;;;;;;5110928;28;20477;-65
2024/01/25 11:34:43;;;;;;;35.90;16.73;;;8.40;99.90;;;;;;5118419;28;20463;-65
2024/01/25 11:37:11;;;;;;;34.83;16.53;;;8.40;99.90;;;;;;5118345;28;20881;-65
2024/01/25 11:39:38;;;;;;;32.27;13.00;;;8.40;99.90;;;;;;5118965;28;20772;-65
2024/01/25 11:42:06;;;;;;;37.13;15.53;;;8.60;99.90;;;;;;5122713;28;20459;-65
2024/01/25 11:44:34;;;;;;;33.27;15.87;;;8.60;94.00;;;;;;5122744;28;20497;-66
2024/01/25 11:47:02;;;;;;;34.60;15.07;;;8.60;8.60;;;;;;5122745;28;20479;-65
2024/01/25 11:49:29;;;;;;;40.30;13.80;;;8.50;1.00;;;;;;5122118;27;20469;-65
2024/01/25 11:52:02;;;;;;;26.83;12.40;;;8.80;1.00;;;;;;5122108;28;20467;-65
2024/01/25 11:54:29;;;;;;;47.33;13.20;;;8.90;1.00;;;;;;5122365;28;20455;-65
2024/01/25 11:56:57;;;;;;;34.30;12.97;;;9.10;1.00;;;;;;5121529;27;20773;-65
2024/01/25 11:59:25;;;;;;;35.10;11.80;;;9.40;1.00;;;;;;5122127;28;20455;-66
2024/01/25 12:01:52;;;;;;;35.40;12.13;;;9.50;1.00;;;;;;5122200;28;20770;-66
2024/01/25 12:04:19;;;;;;;36.00;12.50;;;9.60;1.00;;;;;;5122117;28;20505;-66
2024/01/25 12:06:49;;;;;;;41.63;13.87;;;9.70;1.00;;;;;;5121431;28;20765;-68
2024/01/25 12:09:18;;;;;;;29.20;11.07;;;9.70;1.00;;;;;;5118107;28;20442;-65
2024/01/25 12:11:50;;;;;;;21.93;9.60;;;9.60;1.00;;;;;;5120132;28;20479;-65
2024/01/25 12:14:21;;;;;;;23.40;10.00;;;9.70;1.00;;;;;;5120129;28;20447;-66
2024/01/25 12:16:50;;;;;;;30.80;11.50;;;9.90;1.00;;;;;;5120107;28;20451;-66
2024/01/25 12:19:18;;;;;;;24.93;10.43;;;9.70;1.00;;;;;;5120798;28;20465;-66
2024/01/25 12:21:45;;;;;;;28.20;9.90;;;9.60;1.00;;;;;;5119692;28;20455;-66
2024/01/25 12:24:14;;;;;;;33.13;12.33;;;9.40;1.00;;;;;;5120067;28;20459;-66
2024/01/25 12:26:44;;;;;;;28.90;9.87;;;9.30;1.00;;;;;;5121748;28;20975;-66
2024/01/25 12:29:12;;;;;;;33.20;10.37;;;9.20;1.00;;;;;;5122059;28;20456;-66
2024/01/25 12:31:40;;;;;;;28.83;11.47;;;9.20;1.00;;;;;;5122102;28;20467;-65
2024/01/25 12:34:15;;;;;;;32.40;10.33;;;9.30;1.00;;;;;;5121983;28;20898;-66
2024/01/25 12:36:43;;;;;;;36.17;11.37;;;9.00;1.00;;;;;;5122557;28;20458;-65
2024/01/25 12:39:13;;;;;;;29.17;11.20;;;9.10;1.00;;;;;;5122224;28;20550;-63
2024/01/25 12:41:41;;;;;;;28.43;9.50;;;9.10;1.00;;;;;;5119975;28;20474;-64
2024/01/25 12:44:10;;;;;;;33.17;10.50;;;9.10;1.00;;;;;;5120953;28;20555;-64
2024/01/25 12:46:37;;;;;;;31.43;9.97;;;9.00;1.00;;;;;;5120510;28;20472;-64
2024/01/25 12:49:05;;;;;;;36.97;12.73;;;9.10;1.00;;;;;;5120308;28;20460;-61